createdAt,value
2023-07-26T04:45:16.766Z,9.02
2023-07-26T04:48:19.524Z,10.57
2023-07-26T04:51:22.396Z,11.55
2023-07-26T04:54:23.962Z,9.15
2023-07-26T04:57:26.022Z,9.63
2023-07-26T05:00:28.394Z,9.38
2023-07-26T05:03:30.003Z,10.50
2023-07-26T05:06:32.190Z,10.30
2023-07-26T05:09:33.812Z,10.75
2023-07-26T05:12:35.434Z,12.40
2023-07-26T05:15:39.687Z,12.60
2023-07-26T05:18:41.550Z,9.85
2023-07-26T05:21:43.820Z,10.55
2023-07-26T05:24:45.427Z,10.57
2023-07-26T05:27:47.507Z,10.98
2023-07-26T05:30:49.733Z,10.70
2023-07-26T05:33:51.262Z,9.23
2023-07-26T05:36:52.921Z,9.43
2023-07-26T05:39:54.651Z,9.15
2023-07-26T05:42:58.382Z,8.48
2023-07-26T05:46:03.320Z,10.27
2023-07-26T05:49:04.973Z,9.83
2023-07-26T05:52:06.789Z,9.82
2023-07-26T05:55:13.187Z,11.55
2023-07-26T05:58:14.781Z,9.77
2023-07-26T06:01:16.341Z,9.05
2023-07-26T06:04:17.934Z,12.73
2023-07-26T06:07:19.592Z,8.95
2023-07-26T06:10:21.153Z,11.07
2023-07-26T06:13:22.750Z,13.27
2023-07-26T06:16:24.445Z,10.63
2023-07-26T06:19:26.001Z,13.07
2023-07-26T06:22:29.877Z,11.52
2023-07-26T06:25:33.611Z,11.35
2023-07-26T06:28:35.281Z,11.13
2023-07-26T06:31:36.860Z,8.45
2023-07-26T06:34:38.450Z,9.55
2023-07-26T06:37:40.072Z,8.88
2023-07-26T06:40:43.959Z,9.45
2023-07-26T06:43:45.572Z,9.50
2023-07-26T06:46:47.119Z,9.57
2023-07-26T06:49:48.671Z,12.32
2023-07-26T06:52:50.314Z,8.07
2023-07-26T06:55:52.012Z,8.88
2023-07-26T06:58:54.828Z,10.18
2023-07-26T07:01:56.463Z,6.68
2023-07-26T07:04:58.109Z,7.40
2023-07-26T07:07:59.708Z,7.20
2023-07-26T07:11:01.261Z,8.63
2023-07-26T07:14:02.863Z,8.80
2023-07-26T07:17:04.982Z,7.78
2023-07-26T07:20:08.306Z,7.55
2023-07-26T07:23:10.449Z,11.53
2023-07-26T07:26:12.855Z,9.23
2023-07-26T07:29:14.341Z,7.65
2023-07-26T07:32:22.092Z,8.40
2023-07-26T07:35:24.180Z,7.75
2023-07-26T07:38:25.729Z,8.55
2023-07-26T07:41:27.298Z,7.40
2023-07-26T07:44:29.358Z,5.93
2023-07-26T07:47:30.947Z,5.38
2023-07-26T07:50:32.657Z,4.22
2023-07-26T07:53:34.210Z,5.70
2023-07-26T07:56:35.865Z,5.38
2023-07-26T07:59:37.378Z,4.53
2023-07-26T08:02:38.978Z,5.55
2023-07-26T08:05:40.662Z,5.72
2023-07-26T08:08:42.140Z,4.53
2023-07-26T08:11:43.712Z,5.40
2023-07-26T08:14:49.061Z,3.65
2023-07-26T08:17:50.681Z,4.10
2023-07-26T08:20:52.231Z,4.43
2023-07-26T08:23:53.710Z,6.78
2023-07-26T08:26:55.788Z,3.50
2023-07-26T08:29:57.668Z,5.65
2023-07-26T08:32:59.283Z,4.85
2023-07-26T08:36:00.843Z,4.68
2023-07-26T08:39:02.411Z,4.57
2023-07-26T08:42:05.071Z,3.13
2023-07-26T08:45:07.507Z,3.10
2023-07-26T08:48:10.046Z,3.28
2023-07-26T08:51:12.486Z,5.57
2023-07-26T08:54:15.617Z,4.50
2023-07-26T08:57:17.504Z,5.65
2023-07-26T09:00:19.970Z,4.20
2023-07-26T09:03:21.682Z,3.88
2023-07-26T09:06:24.311Z,4.50
2023-07-26T09:09:25.943Z,6.25
2023-07-26T09:12:29.160Z,3.88
2023-07-26T09:15:37.426Z,3.43
2023-07-26T09:18:55.731Z,5.88
2023-07-26T09:22:01.766Z,5.03
2023-07-26T09:25:03.709Z,5.20
2023-07-26T09:28:07.602Z,3.90
2023-07-26T09:31:09.193Z,6.07
2023-07-26T09:34:15.494Z,3.50
2023-07-26T09:37:22.525Z,4.43
2023-07-26T09:40:37.908Z,5.25
2023-07-26T09:43:41.707Z,6.97
2023-07-26T09:46:53.913Z,6.03
2023-07-26T09:50:15.649Z,3.85
2023-07-26T09:53:18.050Z,5.15
2023-07-26T09:56:19.755Z,5.18
2023-07-26T09:59:24.508Z,7.55
2023-07-26T10:02:28.025Z,6.38
2023-07-26T10:05:39.567Z,6.13
2023-07-26T10:08:43.376Z,8.50
2023-07-26T10:11:46.687Z,7.07
2023-07-26T10:14:49.207Z,10.07
2023-07-26T10:17:53.148Z,6.20
2023-07-26T10:20:57.960Z,6.03
2023-07-26T10:24:03.296Z,5.28
2023-07-26T10:27:06.038Z,5.35
2023-07-26T10:30:08.116Z,8.00
2023-07-26T10:33:14.247Z,4.50
2023-07-26T10:36:16.615Z,5.60
2023-07-26T10:39:30.037Z,5.32
2023-07-26T10:42:31.692Z,5.50
2023-07-26T10:45:42.436Z,6.60
2023-07-26T10:48:44.213Z,5.40
2023-07-26T10:51:59.588Z,5.63
2023-07-26T10:55:01.156Z,7.90
2023-07-26T10:58:13.437Z,4.50
2023-07-26T11:01:34.112Z,5.10
2023-07-26T11:04:44.434Z,6.22
2023-07-26T11:07:55.236Z,4.75
2023-07-26T11:10:56.714Z,7.22
2023-07-26T11:13:59.018Z,6.88
2023-07-26T11:17:15.922Z,5.50
2023-07-26T11:20:17.659Z,5.60
2023-07-26T11:23:25.865Z,4.10
2023-07-26T11:26:29.515Z,5.63
2023-07-26T11:29:31.041Z,4.28
2023-07-26T11:32:32.582Z,5.18
2023-07-26T11:35:43.828Z,7.13
2023-07-26T11:38:45.501Z,5.93
2023-07-26T11:41:47.116Z,7.05
2023-07-26T11:44:48.681Z,6.82
2023-07-26T11:47:51.500Z,4.50
2023-07-26T11:50:56.518Z,4.82
2023-07-26T11:53:58.287Z,5.40
2023-07-26T11:57:00.146Z,6.32
2023-07-26T12:00:05.544Z,5.15
2023-07-26T12:03:14.176Z,5.78
2023-07-26T12:06:15.776Z,4.82
2023-07-26T12:09:17.494Z,6.20
2023-07-26T12:12:19.209Z,6.13
2023-07-26T12:15:20.951Z,4.22
2023-07-26T12:18:24.608Z,5.88
2023-07-26T12:21:26.443Z,6.00
2023-07-26T12:24:28.903Z,5.20
2023-07-26T12:27:35.381Z,5.00
2023-07-26T12:30:36.943Z,5.07
2023-07-26T12:33:55.917Z,5.15
2023-07-26T12:37:00.308Z,4.80
2023-07-26T12:40:01.873Z,4.13
2023-07-26T12:43:23.854Z,4.13
2023-07-26T12:46:25.653Z,5.00
2023-07-26T12:49:27.222Z,6.78
2023-07-26T12:52:29.058Z,5.65
2023-07-26T12:55:30.763Z,4.60
2023-07-26T12:58:32.368Z,3.97
2023-07-26T13:01:34.132Z,4.38
2023-07-26T13:04:35.823Z,4.15
2023-07-26T13:07:37.332Z,5.53
2023-07-26T13:10:38.888Z,5.63
2023-07-26T13:13:40.416Z,4.60
2023-07-26T13:16:42.712Z,5.35
2023-07-26T13:19:44.369Z,5.15
2023-07-26T13:22:45.969Z,4.28
2023-07-26T13:25:47.741Z,4.78
2023-07-26T13:28:49.747Z,3.95
2023-07-26T13:31:51.301Z,3.92
2023-07-26T13:34:53.028Z,4.95
2023-07-26T13:37:54.778Z,4.93
2023-07-26T13:40:56.378Z,4.68
2023-07-26T13:43:57.907Z,5.13
2023-07-26T13:46:59.440Z,6.80
2023-07-26T13:50:01.021Z,4.00
2023-07-26T13:53:02.545Z,4.20
2023-07-26T13:56:04.122Z,8.40
2023-07-26T13:59:05.761Z,4.40
2023-07-26T14:02:07.849Z,4.35
2023-07-26T14:05:09.441Z,4.75
2023-07-26T14:08:10.993Z,4.88
2023-07-26T14:11:12.624Z,4.95
2023-07-26T14:14:14.158Z,4.72
2023-07-26T14:17:15.738Z,4.97
2023-07-26T14:20:17.474Z,5.43
2023-07-26T14:23:19.039Z,4.68
2023-07-26T14:26:20.722Z,4.20
2023-07-26T14:29:22.313Z,5.30
2023-07-26T14:32:23.849Z,6.47
2023-07-26T14:35:25.424Z,4.10
2023-07-26T14:38:26.981Z,7.13
2023-07-26T14:41:28.624Z,5.70
2023-07-26T14:44:30.227Z,4.50
2023-07-26T14:47:31.811Z,3.53
2023-07-26T14:50:33.417Z,5.45
2023-07-26T14:53:35.047Z,4.68
2023-07-26T14:56:36.618Z,4.15
2023-07-26T14:59:38.187Z,3.63
2023-07-26T15:02:40.136Z,4.50
2023-07-26T15:05:46.995Z,4.68
2023-07-26T15:08:48.713Z,4.55
2023-07-26T15:11:50.250Z,4.28
2023-07-26T15:14:53.488Z,3.78
2023-07-26T15:17:55.246Z,3.90
2023-07-26T15:20:56.838Z,4.45
2023-07-26T15:23:58.317Z,3.08
2023-07-26T15:26:59.863Z,5.72
2023-07-26T15:30:01.813Z,4.47
2023-07-26T15:33:04.324Z,6.80
2023-07-26T15:36:10.141Z,4.10
2023-07-26T15:39:11.917Z,3.95
2023-07-26T15:45:54.917Z,4.28
2023-07-26T15:48:50.129Z,3.78
2023-07-26T15:51:51.700Z,3.17
2023-07-26T15:54:53.183Z,3.83
2023-07-26T15:57:54.736Z,5.22
2023-07-26T16:00:56.319Z,4.22
2023-07-26T16:03:57.974Z,4.28
2023-07-26T16:07:02.722Z,4.13
2023-07-26T16:10:05.721Z,4.05
2023-07-26T16:13:07.415Z,4.07
2023-07-26T16:19:14.084Z,5.10
2023-07-26T16:22:15.873Z,4.53
2023-07-26T16:25:17.399Z,4.82
2023-07-26T16:28:18.966Z,5.03
2023-07-26T16:31:20.519Z,5.30
2023-07-26T16:34:22.065Z,5.25
2023-07-26T16:37:23.618Z,4.65
2023-07-26T16:40:25.169Z,4.33
2023-07-26T16:43:26.788Z,3.40
2023-07-26T16:46:37.697Z,3.70
2023-07-26T16:49:50.984Z,5.00
2023-07-26T16:55:54.127Z,3.92
2023-07-26T16:58:55.663Z,5.57
2023-07-26T17:01:57.287Z,4.63
2023-07-26T17:04:58.858Z,5.00
2023-07-26T17:08:00.460Z,3.92
2023-07-26T17:11:02.001Z,4.00
2023-07-26T17:14:03.562Z,4.97
2023-07-26T17:17:05.361Z,4.53
2023-07-26T17:20:07.675Z,4.30
2023-07-26T17:23:09.214Z,4.07
2023-07-26T17:26:10.805Z,4.53
2023-07-26T17:29:12.375Z,4.75
2023-07-26T17:32:14.025Z,4.55
2023-07-26T17:35:15.729Z,5.88
2023-07-26T17:38:18.088Z,3.42
2023-07-26T17:41:19.957Z,5.73
2023-07-26T17:44:21.644Z,4.32
2023-07-26T17:47:23.274Z,3.67
2023-07-26T17:50:26.470Z,4.20
2023-07-26T17:53:30.576Z,7.35
2023-07-26T17:56:32.477Z,4.75
2023-07-26T17:59:39.523Z,8.50
2023-07-26T18:02:41.794Z,28.42
2023-07-26T18:05:45.632Z,10.23
2023-07-26T18:08:50.457Z,6.28
2023-07-26T18:11:53.276Z,3.58
2023-07-26T18:14:54.912Z,4.90
2023-07-26T18:17:56.533Z,3.78
2023-07-26T18:21:06.678Z,3.78
2023-07-26T18:24:09.306Z,3.30
2023-07-26T18:27:10.906Z,3.35
2023-07-26T18:30:12.818Z,5.75
2023-07-26T18:33:14.518Z,4.53
2023-07-26T18:36:18.262Z,3.95
2023-07-26T18:39:19.845Z,3.67
2023-07-26T18:42:21.404Z,5.20
2023-07-26T18:45:23.106Z,5.63
2023-07-26T18:48:25.106Z,5.82
2023-07-26T18:51:26.688Z,6.72
2023-07-26T18:54:28.206Z,6.28
2023-07-26T18:57:29.762Z,5.32
2023-07-26T19:00:31.458Z,5.78
2023-07-26T19:03:33.120Z,5.15
2023-07-26T19:06:34.922Z,6.13
2023-07-26T19:09:36.820Z,7.97
2023-07-26T19:12:38.380Z,6.82
2023-07-26T19:15:39.888Z,4.80
2023-07-26T19:18:41.433Z,6.07
2023-07-26T19:21:43.045Z,6.43
2023-07-26T19:24:44.630Z,5.65
2023-07-26T19:27:46.212Z,7.57
2023-07-26T19:30:47.899Z,8.02
2023-07-26T19:33:49.546Z,7.00
2023-07-26T19:36:51.092Z,6.95
2023-07-26T19:39:52.637Z,5.50
2023-07-26T19:42:54.202Z,6.75
2023-07-26T19:45:55.758Z,6.22
2023-07-26T19:48:57.804Z,6.70
2023-07-26T19:51:59.427Z,5.00
2023-07-26T19:55:00.928Z,6.10
2023-07-26T19:58:02.431Z,7.07
2023-07-26T20:01:06.007Z,11.00
2023-07-26T20:04:07.565Z,6.38
2023-07-26T20:07:09.205Z,7.05
2023-07-26T20:10:11.063Z,9.68
2023-07-26T20:13:16.177Z,4.88
2023-07-26T20:16:19.375Z,6.10
2023-07-26T20:26:08.083Z,6.68
2023-07-26T20:29:09.753Z,7.45
2023-07-26T20:32:11.396Z,6.03
2023-07-26T20:35:13.028Z,4.88
2023-07-26T20:38:14.675Z,5.22
2023-07-26T20:41:16.258Z,4.80
2023-07-26T20:44:17.985Z,5.97
2023-07-26T20:47:20.040Z,5.15
2023-07-26T20:50:21.587Z,5.43
2023-07-26T20:53:23.754Z,7.38
2023-07-26T20:56:25.271Z,6.95
2023-07-26T20:59:26.876Z,5.95
2023-07-26T21:02:28.635Z,6.88
2023-07-26T21:05:31.323Z,7.32
2023-07-26T21:08:32.925Z,6.22
2023-07-26T21:11:34.961Z,5.57
2023-07-26T21:14:36.797Z,5.10
2023-07-26T21:17:38.406Z,4.78
2023-07-26T21:20:41.586Z,6.72
2023-07-26T21:23:43.097Z,5.97
2023-07-26T21:26:44.629Z,7.10
2023-07-26T21:29:46.168Z,6.40
2023-07-26T21:32:47.866Z,4.93
2023-07-26T21:35:54.361Z,5.40
2023-07-26T21:38:55.906Z,6.60
2023-07-26T21:41:57.467Z,4.97
2023-07-26T21:44:59.187Z,6.43
2023-07-26T21:48:02.790Z,5.78
2023-07-26T21:51:04.347Z,6.20
2023-07-26T21:54:05.930Z,6.60
2023-07-26T21:57:07.732Z,5.18
2023-07-26T22:00:09.947Z,6.55
2023-07-26T22:03:12.584Z,5.03
2023-07-26T22:06:14.841Z,6.05
2023-07-26T22:09:16.361Z,9.70
2023-07-26T22:12:17.943Z,5.53
2023-07-26T22:15:19.905Z,7.40
2023-07-26T22:18:21.612Z,3.95
2023-07-26T22:21:24.476Z,5.07
2023-07-26T22:24:26.074Z,5.90
2023-07-26T22:27:27.745Z,4.80
2023-07-26T22:30:29.305Z,5.70
2023-07-26T22:33:30.830Z,5.20
2023-07-26T22:36:32.666Z,5.80
2023-07-26T22:39:36.037Z,6.15
2023-07-26T22:42:38.019Z,5.90
2023-07-26T22:45:39.576Z,5.05
2023-07-26T22:48:43.063Z,7.70
2023-07-26T22:51:44.568Z,7.07
2023-07-26T22:54:46.096Z,6.35
2023-07-26T22:57:47.589Z,9.82
2023-07-26T23:00:49.230Z,5.28
2023-07-26T23:03:50.860Z,6.80
2023-07-26T23:06:52.576Z,7.10
2023-07-26T23:09:54.348Z,5.60
2023-07-26T23:12:55.900Z,5.75
2023-07-26T23:15:59.049Z,8.48
2023-07-26T23:19:00.576Z,8.83
2023-07-26T23:22:03.676Z,7.45
2023-07-26T23:25:05.958Z,5.30
2023-07-26T23:28:07.576Z,5.55
2023-07-26T23:31:09.090Z,7.90
2023-07-26T23:34:10.662Z,5.47
2023-07-26T23:37:12.341Z,7.43
2023-07-26T23:40:14.122Z,4.95
2023-07-26T23:43:15.740Z,6.53
2023-07-26T23:46:17.359Z,6.15
2023-07-26T23:49:18.918Z,5.60
2023-07-26T23:52:20.490Z,6.45
2023-07-26T23:55:22.123Z,6.78
2023-07-26T23:58:23.723Z,5.95
